sensor_id;sensor_type;location;lat;lon;timestamp;temperature;humidity
6752;DHT22;3413;47.680;9.166;2023-07-02T00:00:04;22.10;80.00
6752;DHT22;3413;47.680;9.166;2023-07-02T00:05:09;22.00;80.20
6752;DHT22;3413;47.680;9.166;2023-07-02T00:10:11;22.00;80.10
6752;DHT22;3413;47.680;9.166;2023-07-02T00:15:13;22.10;80.70
6752;DHT22;3413;47.680;9.166;2023-07-02T00:20:15;22.10;80.10
6752;DHT22;3413;47.680;9.166;2023-07-02T00:25:19;22.00;80.20
6752;DHT22;3413;47.680;9.166;2023-07-02T00:30:21;21.90;80.30
6752;DHT22;3413;47.680;9.166;2023-07-02T00:35:22;21.90;80.40
6752;DHT22;3413;47.680;9.166;2023-07-02T00:40:27;21.70;81.10
6752;DHT22;3413;47.680;9.166;2023-07-02T00:45:29;21.50;80.60
6752;DHT22;3413;47.680;9.166;2023-07-02T00:50:31;21.40;81.40
6752;DHT22;3413;47.680;9.166;2023-07-02T00:55:33;21.30;80.70
6752;DHT22;3413;47.680;9.166;2023-07-02T01:00:35;21.20;80.80
6752;DHT22;3413;47.680;9.166;2023-07-02T01:05:37;21.20;81.60
6752;DHT22;3413;47.680;9.166;2023-07-02T01:10:39;21.20;80.90
6752;DHT22;3413;47.680;9.166;2023-07-02T01:15:42;21.30;81.00
6752;DHT22;3413;47.680;9.166;2023-07-02T01:20:46;21.50;81.10
6752;DHT22;3413;47.680;9.166;2023-07-02T01:25:51;21.60;81.10
6752;DHT22;3413;47.680;9.166;2023-07-02T01:30:53;21.70;81.30
6752;DHT22;3413;47.680;9.166;2023-07-02T01:35:55;21.80;81.40
6752;DHT22;3413;47.680;9.166;2023-07-02T01:40:57;21.90;81.30
6752;DHT22;3413;47.680;9.166;2023-07-02T01:45:59;22.00;81.40
6752;DHT22;3413;47.680;9.166;2023-07-02T01:51:03;22.00;81.50
6752;DHT22;3413;47.680;9.166;2023-07-02T01:56:05;22.00;81.50
6752;DHT22;3413;47.680;9.166;2023-07-02T02:01:07;22.00;81.50
6752;DHT22;3413;47.680;9.166;2023-07-02T02:06:09;21.90;81.70
6752;DHT22;3413;47.680;9.166;2023-07-02T02:11:11;21.80;81.80
6752;DHT22;3413;47.680;9.166;2023-07-02T02:16:13;21.90;81.90
6752;DHT22;3413;47.680;9.166;2023-07-02T02:21:15;21.90;81.90
6752;DHT22;3413;47.680;9.166;2023-07-02T02:26:17;21.80;81.80
6752;DHT22;3413;47.680;9.166;2023-07-02T02:31:19;21.70;81.90
6752;DHT22;3413;47.680;9.166;2023-07-02T02:36:22;21.60;81.90
6752;DHT22;3413;47.680;9.166;2023-07-02T02:41:24;21.60;81.90
6752;DHT22;3413;47.680;9.166;2023-07-02T02:46:27;21.50;81.90
6752;DHT22;3413;47.680;9.166;2023-07-02T02:51:29;21.50;82.00
6752;DHT22;3413;47.680;9.166;2023-07-02T02:56:31;21.50;82.10
6752;DHT22;3413;47.680;9.166;2023-07-02T03:01:33;21.50;82.20
6752;DHT22;3413;47.680;9.166;2023-07-02T03:06:35;21.30;82.20
6752;DHT22;3413;47.680;9.166;2023-07-02T03:11:37;21.30;82.40
6752;DHT22;3413;47.680;9.166;2023-07-02T03:16:39;21.20;82.40
6752;DHT22;3413;47.680;9.166;2023-07-02T03:21:44;21.20;82.40
6752;DHT22;3413;47.680;9.166;2023-07-02T03:26:46;21.10;82.40
6752;DHT22;3413;47.680;9.166;2023-07-02T03:31:48;21.10;82.40
6752;DHT22;3413;47.680;9.166;2023-07-02T03:36:50;21.10;82.50
6752;DHT22;3413;47.680;9.166;2023-07-02T03:41:52;21.10;82.60
6752;DHT22;3413;47.680;9.166;2023-07-02T03:46:54;21.00;82.70
6752;DHT22;3413;47.680;9.166;2023-07-02T03:51:56;21.00;82.70
6752;DHT22;3413;47.680;9.166;2023-07-02T03:56:58;21.10;82.70
6752;DHT22;3413;47.680;9.166;2023-07-02T04:01:59;21.00;82.70
6752;DHT22;3413;47.680;9.166;2023-07-02T04:07:01;20.90;82.70
6752;DHT22;3413;47.680;9.166;2023-07-02T04:12:04;20.90;82.90
6752;DHT22;3413;47.680;9.166;2023-07-02T04:17:06;21.00;82.90
6752;DHT22;3413;47.680;9.166;2023-07-02T04:22:08;21.00;82.90
6752;DHT22;3413;47.680;9.166;2023-07-02T04:27:10;20.90;82.90
6752;DHT22;3413;47.680;9.166;2023-07-02T04:32:32;21.00;83.00
6752;DHT22;3413;47.680;9.166;2023-07-02T04:37:35;21.10;83.00
6752;DHT22;3413;47.680;9.166;2023-07-02T04:42:38;21.10;83.10
6752;DHT22;3413;47.680;9.166;2023-07-02T04:47:41;21.10;83.10
6752;DHT22;3413;47.680;9.166;2023-07-02T04:52:43;21.00;83.10
6752;DHT22;3413;47.680;9.166;2023-07-02T04:57:45;21.00;83.10
6752;DHT22;3413;47.680;9.166;2023-07-02T05:02:47;21.00;83.00
6752;DHT22;3413;47.680;9.166;2023-07-02T05:07:49;21.00;83.00
6752;DHT22;3413;47.680;9.166;2023-07-02T05:12:51;21.10;83.10
6752;DHT22;3413;47.680;9.166;2023-07-02T05:17:53;21.00;83.10
6752;DHT22;3413;47.680;9.166;2023-07-02T05:22:55;21.00;83.00
6752;DHT22;3413;47.680;9.166;2023-07-02T05:27:57;21.00;83.00
6752;DHT22;3413;47.680;9.166;2023-07-02T05:32:59;21.00;83.00
6752;DHT22;3413;47.680;9.166;2023-07-02T05:38:01;20.90;82.80
6752;DHT22;3413;47.680;9.166;2023-07-02T05:43:03;20.90;82.80
6752;DHT22;3413;47.680;9.166;2023-07-02T05:48:05;20.90;82.70
6752;DHT22;3413;47.680;9.166;2023-07-02T05:53:07;20.90;82.60
6752;DHT22;3413;47.680;9.166;2023-07-02T05:58:11;20.90;82.70
6752;DHT22;3413;47.680;9.166;2023-07-02T06:03:13;20.90;82.70
6752;DHT22;3413;47.680;9.166;2023-07-02T06:08:20;20.90;82.60
6752;DHT22;3413;47.680;9.166;2023-07-02T06:13:22;21.00;82.50
6752;DHT22;3413;47.680;9.166;2023-07-02T06:18:24;21.00;82.50
6752;DHT22;3413;47.680;9.166;2023-07-02T06:23:26;21.00;82.60
6752;DHT22;3413;47.680;9.166;2023-07-02T06:28:28;21.10;82.70
6752;DHT22;3413;47.680;9.166;2023-07-02T06:33:30;21.20;82.70
6752;DHT22;3413;47.680;9.166;2023-07-02T06:38:32;21.20;82.70
6752;DHT22;3413;47.680;9.166;2023-07-02T06:43:34;21.30;82.90
6752;DHT22;3413;47.680;9.166;2023-07-02T06:48:36;21.40;82.80
6752;DHT22;3413;47.680;9.166;2023-07-02T06:53:38;21.50;82.80
6752;DHT22;3413;47.680;9.166;2023-07-02T06:58:42;21.40;82.80
6752;DHT22;3413;47.680;9.166;2023-07-02T07:03:45;21.40;83.10
6752;DHT22;3413;47.680;9.166;2023-07-02T07:08:47;21.50;82.90
6752;DHT22;3413;47.680;9.166;2023-07-02T07:13:49;21.60;83.00
6752;DHT22;3413;47.680;9.166;2023-07-02T07:18:51;21.70;83.00
6752;DHT22;3413;47.680;9.166;2023-07-02T07:23:53;21.70;82.90
6752;DHT22;3413;47.680;9.166;2023-07-02T07:28:54;21.60;82.80
6752;DHT22;3413;47.680;9.166;2023-07-02T07:33:57;21.60;82.80
6752;DHT22;3413;47.680;9.166;2023-07-02T07:38:59;21.50;82.70
6752;DHT22;3413;47.680;9.166;2023-07-02T07:44:01;21.50;82.60
6752;DHT22;3413;47.680;9.166;2023-07-02T07:49:03;21.40;82.50
6752;DHT22;3413;47.680;9.166;2023-07-02T07:54:05;21.40;82.40
6752;DHT22;3413;47.680;9.166;2023-07-02T07:59:07;21.40;82.40
6752;DHT22;3413;47.680;9.166;2023-07-02T08:04:09;21.50;82.40
6752;DHT22;3413;47.680;9.166;2023-07-02T08:09:11;21.50;82.20
6752;DHT22;3413;47.680;9.166;2023-07-02T08:14:13;21.50;82.20
6752;DHT22;3413;47.680;9.166;2023-07-02T08:19:15;21.70;82.30
6752;DHT22;3413;47.680;9.166;2023-07-02T08:24:17;21.70;82.20
6752;DHT22;3413;47.680;9.166;2023-07-02T08:29:18;21.80;82.20
6752;DHT22;3413;47.680;9.166;2023-07-02T08:34:20;21.90;82.20
6752;DHT22;3413;47.680;9.166;2023-07-02T08:39:22;22.00;82.10
6752;DHT22;3413;47.680;9.166;2023-07-02T08:44:24;22.10;82.00
6752;DHT22;3413;47.680;9.166;2023-07-02T08:49:28;22.30;82.00
6752;DHT22;3413;47.680;9.166;2023-07-02T08:54:30;22.30;81.90
6752;DHT22;3413;47.680;9.166;2023-07-02T08:59:32;22.30;82.00
6752;DHT22;3413;47.680;9.166;2023-07-02T09:04:34;22.30;81.80
6752;DHT22;3413;47.680;9.166;2023-07-02T09:09:49;22.30;81.70
6752;DHT22;3413;47.680;9.166;2023-07-02T09:19:59;22.50;81.70
6752;DHT22;3413;47.680;9.166;2023-07-02T09:25:03;22.50;81.80
6752;DHT22;3413;47.680;9.166;2023-07-02T09:30:13;22.60;81.90
6752;DHT22;3413;47.680;9.166;2023-07-02T09:35:15;22.70;81.90
6752;DHT22;3413;47.680;9.166;2023-07-02T09:40:17;22.80;82.00
6752;DHT22;3413;47.680;9.166;2023-07-02T09:45:20;23.00;82.10
6752;DHT22;3413;47.680;9.166;2023-07-02T09:50:27;23.20;82.10
6752;DHT22;3413;47.680;9.166;2023-07-02T09:55:30;23.40;82.10
6752;DHT22;3413;47.680;9.166;2023-07-02T10:00:32;23.60;82.80
6752;DHT22;3413;47.680;9.166;2023-07-02T10:05:34;23.80;82.10
6752;DHT22;3413;47.680;9.166;2023-07-02T10:10:36;24.00;82.30
6752;DHT22;3413;47.680;9.166;2023-07-02T10:15:38;24.10;82.30
6752;DHT22;3413;47.680;9.166;2023-07-02T10:20:41;24.30;82.30
6752;DHT22;3413;47.680;9.166;2023-07-02T10:25:44;24.40;82.20
6752;DHT22;3413;47.680;9.166;2023-07-02T10:30:46;24.60;82.20
6752;DHT22;3413;47.680;9.166;2023-07-02T10:35:49;24.60;82.20
6752;DHT22;3413;47.680;9.166;2023-07-02T10:40:59;24.70;82.10
6752;DHT22;3413;47.680;9.166;2023-07-02T10:46:02;24.70;82.00
6752;DHT22;3413;47.680;9.166;2023-07-02T10:51:11;24.70;82.00
6752;DHT22;3413;47.680;9.166;2023-07-02T10:56:17;24.70;81.90
6752;DHT22;3413;47.680;9.166;2023-07-02T11:01:28;24.80;82.10
6752;DHT22;3413;47.680;9.166;2023-07-02T11:06:31;24.90;81.90
6752;DHT22;3413;47.680;9.166;2023-07-02T11:11:34;24.90;81.90
6752;DHT22;3413;47.680;9.166;2023-07-02T11:16:36;25.10;82.00
6752;DHT22;3413;47.680;9.166;2023-07-02T11:21:54;25.20;81.80
6752;DHT22;3413;47.680;9.166;2023-07-02T11:26:58;25.20;81.50
6752;DHT22;3413;47.680;9.166;2023-07-02T11:32:08;25.30;81.60
6752;DHT22;3413;47.680;9.166;2023-07-02T11:37:11;25.40;81.40
6752;DHT22;3413;47.680;9.166;2023-07-02T11:42:13;25.50;81.40
6752;DHT22;3413;47.680;9.166;2023-07-02T11:47:15;25.70;81.40
6752;DHT22;3413;47.680;9.166;2023-07-02T11:52:16;25.80;81.50
6752;DHT22;3413;47.680;9.166;2023-07-02T11:57:20;26.10;81.50
6752;DHT22;3413;47.680;9.166;2023-07-02T12:02:23;26.40;81.40
6752;DHT22;3413;47.680;9.166;2023-07-02T12:07:25;26.40;81.10
6752;DHT22;3413;47.680;9.166;2023-07-02T12:12:27;26.30;80.90
6752;DHT22;3413;47.680;9.166;2023-07-02T12:17:29;26.30;81.00
6752;DHT22;3413;47.680;9.166;2023-07-02T12:22:31;26.20;80.90
6752;DHT22;3413;47.680;9.166;2023-07-02T12:27:33;26.10;80.90
6752;DHT22;3413;47.680;9.166;2023-07-02T12:32:35;26.30;81.00
6752;DHT22;3413;47.680;9.166;2023-07-02T12:37:44;26.50;80.90
6752;DHT22;3413;47.680;9.166;2023-07-02T12:42:47;26.50;80.40
6752;DHT22;3413;47.680;9.166;2023-07-02T12:47:49;26.50;80.30
6752;DHT22;3413;47.680;9.166;2023-07-02T12:52:51;26.40;80.30
6752;DHT22;3413;47.680;9.166;2023-07-02T12:57:53;26.50;80.30
6752;DHT22;3413;47.680;9.166;2023-07-02T13:02:55;26.60;80.30
6752;DHT22;3413;47.680;9.166;2023-07-02T13:08:06;26.90;80.30
6752;DHT22;3413;47.680;9.166;2023-07-02T13:13:08;27.10;80.10
6752;DHT22;3413;47.680;9.166;2023-07-02T13:18:23;27.10;79.70
6752;DHT22;3413;47.680;9.166;2023-07-02T13:23:25;27.30;80.10
6752;DHT22;3413;47.680;9.166;2023-07-02T13:28:27;27.50;79.90
6752;DHT22;3413;47.680;9.166;2023-07-02T13:33:30;27.80;79.80
6752;DHT22;3413;47.680;9.166;2023-07-02T13:38:33;27.90;79.70
6752;DHT22;3413;47.680;9.166;2023-07-02T13:43:35;28.00;79.50
6752;DHT22;3413;47.680;9.166;2023-07-02T13:48:37;27.90;79.20
6752;DHT22;3413;47.680;9.166;2023-07-02T13:53:39;27.90;79.00
6752;DHT22;3413;47.680;9.166;2023-07-02T13:58:59;27.90;78.90
6752;DHT22;3413;47.680;9.166;2023-07-02T14:04:02;27.90;78.60
6752;DHT22;3413;47.680;9.166;2023-07-02T14:09:05;27.90;78.60
6752;DHT22;3413;47.680;9.166;2023-07-02T14:14:08;27.90;78.50
6752;DHT22;3413;47.680;9.166;2023-07-02T14:19:10;28.00;78.40
6752;DHT22;3413;47.680;9.166;2023-07-02T14:24:14;28.20;78.30
6752;DHT22;3413;47.680;9.166;2023-07-02T14:29:16;28.40;78.40
6752;DHT22;3413;47.680;9.166;2023-07-02T14:34:18;28.60;78.10
6752;DHT22;3413;47.680;9.166;2023-07-02T14:39:20;28.60;77.90
6752;DHT22;3413;47.680;9.166;2023-07-02T14:44:22;28.80;77.80
6752;DHT22;3413;47.680;9.166;2023-07-02T14:49:24;28.80;77.80
6752;DHT22;3413;47.680;9.166;2023-07-02T14:54:27;28.90;77.80
6752;DHT22;3413;47.680;9.166;2023-07-02T14:59:29;28.90;77.60
6752;DHT22;3413;47.680;9.166;2023-07-02T15:04:31;29.00;77.60
6752;DHT22;3413;47.680;9.166;2023-07-02T15:09:33;29.00;77.40
6752;DHT22;3413;47.680;9.166;2023-07-02T15:14:35;29.00;77.20
6752;DHT22;3413;47.680;9.166;2023-07-02T15:19:38;29.00;77.20
6752;DHT22;3413;47.680;9.166;2023-07-02T15:24:40;29.00;77.00
6752;DHT22;3413;47.680;9.166;2023-07-02T15:29:42;29.00;76.80
6752;DHT22;3413;47.680;9.166;2023-07-02T15:34:44;29.10;76.90
6752;DHT22;3413;47.680;9.166;2023-07-02T15:39:46;29.20;77.70
6752;DHT22;3413;47.680;9.166;2023-07-02T15:44:48;29.20;76.70
6752;DHT22;3413;47.680;9.166;2023-07-02T15:49:50;29.10;76.70
6752;DHT22;3413;47.680;9.166;2023-07-02T15:54:52;29.20;76.70
6752;DHT22;3413;47.680;9.166;2023-07-02T15:59:54;29.10;76.50
6752;DHT22;3413;47.680;9.166;2023-07-02T16:04:56;28.90;76.40
6752;DHT22;3413;47.680;9.166;2023-07-02T16:09:59;28.90;76.50
6752;DHT22;3413;47.680;9.166;2023-07-02T16:15:01;28.70;76.50
6752;DHT22;3413;47.680;9.166;2023-07-02T16:20:04;28.80;76.40
6752;DHT22;3413;47.680;9.166;2023-07-02T16:25:06;28.70;76.40
6752;DHT22;3413;47.680;9.166;2023-07-02T16:30:09;28.60;76.30
6752;DHT22;3413;47.680;9.166;2023-07-02T16:35:11;28.50;76.10
6752;DHT22;3413;47.680;9.166;2023-07-02T16:40:13;28.50;76.20
6752;DHT22;3413;47.680;9.166;2023-07-02T16:45:15;28.60;76.30
6752;DHT22;3413;47.680;9.166;2023-07-02T16:50:17;28.60;76.10
6752;DHT22;3413;47.680;9.166;2023-07-02T16:55:19;28.40;76.00
6752;DHT22;3413;47.680;9.166;2023-07-02T17:00:21;28.30;76.10
6752;DHT22;3413;47.680;9.166;2023-07-02T17:05:23;28.40;76.10
6752;DHT22;3413;47.680;9.166;2023-07-02T17:10:26;28.30;75.90
6752;DHT22;3413;47.680;9.166;2023-07-02T17:15:28;28.30;75.80
6752;DHT22;3413;47.680;9.166;2023-07-02T17:20:30;28.20;75.70
6752;DHT22;3413;47.680;9.166;2023-07-02T17:25:32;28.00;75.60
6752;DHT22;3413;47.680;9.166;2023-07-02T17:30:34;27.90;75.60
6752;DHT22;3413;47.680;9.166;2023-07-02T17:35:41;27.60;75.50
6752;DHT22;3413;47.680;9.166;2023-07-02T17:40:44;27.50;75.50
6752;DHT22;3413;47.680;9.166;2023-07-02T17:45:53;27.50;75.40
6752;DHT22;3413;47.680;9.166;2023-07-02T17:50:58;27.60;75.30
6752;DHT22;3413;47.680;9.166;2023-07-02T17:56:00;27.50;76.00
6752;DHT22;3413;47.680;9.166;2023-07-02T18:01:02;27.40;75.20
6752;DHT22;3413;47.680;9.166;2023-07-02T18:06:04;27.30;75.10
6752;DHT22;3413;47.680;9.166;2023-07-02T18:11:06;27.20;75.10
6752;DHT22;3413;47.680;9.166;2023-07-02T18:16:10;27.20;75.10
6752;DHT22;3413;47.680;9.166;2023-07-02T18:21:12;27.20;75.00
6752;DHT22;3413;47.680;9.166;2023-07-02T18:26:14;27.10;75.00
6752;DHT22;3413;47.680;9.166;2023-07-02T18:31:16;27.20;75.10
6752;DHT22;3413;47.680;9.166;2023-07-02T18:36:18;27.10;74.80
6752;DHT22;3413;47.680;9.166;2023-07-02T18:41:20;27.00;74.70
6752;DHT22;3413;47.680;9.166;2023-07-02T18:46:24;26.90;74.70
6752;DHT22;3413;47.680;9.166;2023-07-02T18:51:26;26.90;74.80
6752;DHT22;3413;47.680;9.166;2023-07-02T18:56:28;26.90;74.70
6752;DHT22;3413;47.680;9.166;2023-07-02T19:01:30;26.90;74.70
6752;DHT22;3413;47.680;9.166;2023-07-02T19:06:32;26.80;74.60
6752;DHT22;3413;47.680;9.166;2023-07-02T19:11:36;26.70;74.50
6752;DHT22;3413;47.680;9.166;2023-07-02T19:16:37;26.70;74.70
6752;DHT22;3413;47.680;9.166;2023-07-02T19:21:40;26.70;74.60
6752;DHT22;3413;47.680;9.166;2023-07-02T19:26:42;26.50;74.70
6752;DHT22;3413;47.680;9.166;2023-07-02T19:31:44;26.50;74.60
6752;DHT22;3413;47.680;9.166;2023-07-02T19:36:47;26.40;74.60
6752;DHT22;3413;47.680;9.166;2023-07-02T19:41:49;26.40;74.60
6752;DHT22;3413;47.680;9.166;2023-07-02T19:46:52;26.20;74.50
6752;DHT22;3413;47.680;9.166;2023-07-02T19:51:54;26.20;74.50
6752;DHT22;3413;47.680;9.166;2023-07-02T19:56:56;26.10;74.50
6752;DHT22;3413;47.680;9.166;2023-07-02T20:02:00;26.00;74.40
6752;DHT22;3413;47.680;9.166;2023-07-02T20:07:02;25.80;74.40
6752;DHT22;3413;47.680;9.166;2023-07-02T20:12:06;25.80;74.30
6752;DHT22;3413;47.680;9.166;2023-07-02T20:17:08;25.70;74.20
6752;DHT22;3413;47.680;9.166;2023-07-02T20:22:10;25.70;74.10
6752;DHT22;3413;47.680;9.166;2023-07-02T20:27:12;25.70;74.00
6752;DHT22;3413;47.680;9.166;2023-07-02T20:32:16;25.70;73.90
6752;DHT22;3413;47.680;9.166;2023-07-02T20:37:20;25.70;73.90
6752;DHT22;3413;47.680;9.166;2023-07-02T20:42:23;25.70;73.70
6752;DHT22;3413;47.680;9.166;2023-07-02T20:47:25;25.60;73.90
6752;DHT22;3413;47.680;9.166;2023-07-02T20:52:27;25.50;73.90
6752;DHT22;3413;47.680;9.166;2023-07-02T20:57:29;25.40;73.80
6752;DHT22;3413;47.680;9.166;2023-07-02T21:02:31;25.40;73.80
6752;DHT22;3413;47.680;9.166;2023-07-02T21:07:33;25.40;73.80
6752;DHT22;3413;47.680;9.166;2023-07-02T21:12:36;25.40;73.70
6752;DHT22;3413;47.680;9.166;2023-07-02T21:17:38;25.40;73.70
6752;DHT22;3413;47.680;9.166;2023-07-02T21:22:40;25.40;73.60
6752;DHT22;3413;47.680;9.166;2023-07-02T21:27:42;25.40;73.60
6752;DHT22;3413;47.680;9.166;2023-07-02T21:32:47;25.20;73.60
6752;DHT22;3413;47.680;9.166;2023-07-02T21:37:52;25.10;73.60
6752;DHT22;3413;47.680;9.166;2023-07-02T21:42:54;25.00;73.70
6752;DHT22;3413;47.680;9.166;2023-07-02T21:47:56;24.90;73.60
6752;DHT22;3413;47.680;9.166;2023-07-02T21:52:58;24.90;73.60
6752;DHT22;3413;47.680;9.166;2023-07-02T21:58:00;24.80;73.60
6752;DHT22;3413;47.680;9.166;2023-07-02T22:03:03;24.80;73.60
6752;DHT22;3413;47.680;9.166;2023-07-02T22:08:05;24.60;73.60
6752;DHT22;3413;47.680;9.166;2023-07-02T22:13:07;24.50;73.50
6752;DHT22;3413;47.680;9.166;2023-07-02T22:18:10;24.40;73.60
6752;DHT22;3413;47.680;9.166;2023-07-02T22:23:13;24.30;73.50
6752;DHT22;3413;47.680;9.166;2023-07-02T22:28:15;24.00;73.40
6752;DHT22;3413;47.680;9.166;2023-07-02T22:33:17;23.80;73.60
6752;DHT22;3413;47.680;9.166;2023-07-02T22:38:19;23.70;73.60
6752;DHT22;3413;47.680;9.166;2023-07-02T22:43:21;23.50;73.50
6752;DHT22;3413;47.680;9.166;2023-07-02T22:48:22;23.40;73.50
6752;DHT22;3413;47.680;9.166;2023-07-02T22:53:25;23.40;73.50
6752;DHT22;3413;47.680;9.166;2023-07-02T22:58:27;23.40;73.50
6752;DHT22;3413;47.680;9.166;2023-07-02T23:03:29;23.40;73.60
6752;DHT22;3413;47.680;9.166;2023-07-02T23:08:31;23.40;73.50
6752;DHT22;3413;47.680;9.166;2023-07-02T23:13:33;23.40;73.50
6752;DHT22;3413;47.680;9.166;2023-07-02T23:18:34;23.40;73.40
6752;DHT22;3413;47.680;9.166;2023-07-02T23:23:36;23.40;73.50
6752;DHT22;3413;47.680;9.166;2023-07-02T23:28:40;23.50;73.50
6752;DHT22;3413;47.680;9.166;2023-07-02T23:33:42;23.50;73.50
6752;DHT22;3413;47.680;9.166;2023-07-02T23:38:44;23.60;73.50
6752;DHT22;3413;47.680;9.166;2023-07-02T23:43:47;23.60;73.40
6752;DHT22;3413;47.680;9.166;2023-07-02T23:48:49;23.50;73.20
6752;DHT22;3413;47.680;9.166;2023-07-02T23:53:51;23.50;73.20
6752;DHT22;3413;47.680;9.166;2023-07-02T23:58:52;23.50;73.10
